Time;durP1;ratioP1;P1;durP2;ratioP2;P2;SDS_P1;SDS_P2;PMS_P1;PMS_P2;Temp;Humidity;BMP_temperature;BMP_pressure;BME280_temperature;BME280_humidity;BME280_pressure;Samples;Min_cycle;Max_cycle;Signal;HPM_P1;HPM_P2
2023/07/07 00:01:08;;;;;;;13.95;6.92;;;;;;;12.04;85.15;100137.03;1676786;84;21028;-68
2023/07/07 00:03:36;;;;;;;12.15;5.62;;;;;;;12.01;85.27;100145.86;1680765;83;21412;-69
2023/07/07 00:06:02;;;;;;;6.08;4.62;;;;;;;12.01;85.45;100139.79;1676675;83;21002;-68
2023/07/07 00:08:29;;;;;;;9.07;5.90;;;;;;;11.99;85.67;100136.42;1678117;83;20955;-68
2023/07/07 00:10:58;;;;;;;7.90;4.87;;;;;;;11.99;85.67;100136.42;1675461;84;21718;-68
2023/07/07 00:13:24;;;;;;;9.85;5.00;;;;;;;11.98;85.91;100134.70;1675400;84;21011;-68
2023/07/07 00:15:50;;;;;;;9.68;4.95;;;;;;;11.93;85.75;100134.94;1679932;83;21034;-68
2023/07/07 00:18:27;;;;;;;7.62;5.08;;;;;;;11.90;85.77;100136.82;1677340;83;21045;-69
2023/07/07 00:20:55;;;;;;;8.30;4.83;;;;;;;11.85;85.76;100138.33;1674309;84;21054;-68
2023/07/07 00:23:21;;;;;;;8.63;4.45;;;;;;;11.80;85.87;100135.91;1677656;83;21443;-69
2023/07/07 00:26:03;;;;;;;7.10;4.83;;;;;;;11.78;85.90;100137.73;1677626;84;20932;-68
2023/07/07 00:28:29;;;;;;;9.85;5.03;;;;;;;11.73;85.84;100134.94;1657752;85;21074;-68
2023/07/07 00:30:56;;;;;;;8.83;4.97;;;;;;;11.68;85.92;100136.48;1676724;84;20975;-68
2023/07/07 00:33:22;;;;;;;9.13;5.17;;;;;;;11.63;86.00;100131.91;1676950;84;21586;-68
2023/07/07 00:35:49;;;;;;;9.55;6.90;;;;;;;11.60;86.22;100138.59;1676203;84;21026;-69
2023/07/07 00:38:17;;;;;;;11.45;5.45;;;;;;;11.55;86.19;100140.09;1679422;82;21152;-68
2023/07/07 00:40:43;;;;;;;7.17;4.78;;;;;;;11.51;86.27;100141.59;1670510;83;21098;-68
2023/07/07 00:43:13;;;;;;;7.92;4.42;;;;;;;11.46;86.20;100144.89;1659026;86;21591;-68
2023/07/07 00:45:39;;;;;;;7.00;4.67;;;;;;;11.40;86.25;100149.47;1656540;84;21021;-68
2023/07/07 00:48:09;;;;;;;9.35;5.75;;;;;;;11.35;86.38;100146.20;1664437;85;21514;-69
2023/07/07 00:50:38;;;;;;;18.45;8.98;;;;;;;11.31;86.42;100149.85;1649977;85;21023;-69
2023/07/07 00:53:05;;;;;;;16.95;12.45;;;;;;;11.28;86.46;100151.30;1646310;85;21386;-67
2023/07/07 00:55:40;;;;;;;13.50;10.03;;;;;;;11.24;86.65;100150.20;1662882;85;21472;-68
2023/07/07 00:58:10;;;;;;;14.38;10.28;;;;;;;11.21;86.68;100148.57;1657144;85;21018;-67
2023/07/07 01:00:38;;;;;;;15.58;13.60;;;;;;;11.18;86.82;100150.02;1661727;85;21620;-68
2023/07/07 01:03:08;;;;;;;22.73;16.37;;;;;;;11.18;87.15;100152.63;1660686;84;21089;-69
2023/07/07 01:05:37;;;;;;;9.80;8.80;;;;;;;11.18;87.41;100160.47;1656417;86;20994;-67
2023/07/07 01:08:02;;;;;;;14.85;9.10;;;;;;;11.17;87.61;100157.44;1659593;85;21042;-68
2023/07/07 01:10:29;;;;;;;13.98;7.83;;;;;;;11.16;87.38;100158.37;1620479;87;21483;-68
2023/07/07 01:12:55;;;;;;;9.95;8.93;;;;;;;11.13;87.27;100166.34;1659155;86;21054;-68
2023/07/07 01:15:24;;;;;;;11.43;8.40;;;;;;;11.08;87.19;100161.77;1608152;87;20980;-70
2023/07/07 01:17:57;;;;;;;12.15;6.72;;;;;;;11.04;87.26;100158.90;1657845;86;20994;-68
2023/07/07 01:20:41;;;;;;;18.32;11.35;;;;;;;11.00;87.28;100165.16;1618134;87;21111;-68
2023/07/07 01:23:20;;;;;;;11.88;8.53;;;;;;;10.95;87.35;100153.58;1654036;85;21103;-70
2023/07/07 01:26:10;;;;;;;12.37;10.68;;;;;;;10.96;87.80;100153.52;1655729;85;21017;-68
2023/07/07 01:29:14;;;;;;;16.27;10.90;;;;;;;10.97;88.06;100153.91;1655864;86;21063;-69
2023/07/07 01:32:00;;;;;;;14.43;10.53;;;;;;;11.00;88.26;100149.47;1656496;84;21561;-68
2023/07/07 01:34:27;;;;;;;13.58;10.40;;;;;;;10.98;88.20;100147.79;1624281;86;21497;-69
2023/07/07 01:36:53;;;;;;;10.57;7.90;;;;;;;11.03;88.54;100144.11;1620446;87;21604;-70
2023/07/07 01:39:21;;;;;;;10.25;7.70;;;;;;;11.04;88.51;100143.22;1635675;86;21634;-69
2023/07/07 01:41:51;;;;;;;8.65;7.03;;;;;;;11.03;88.50;100146.73;1676016;84;21136;-69
2023/07/07 01:44:51;;;;;;;11.38;6.53;;;;;;;11.06;88.82;100149.20;1676885;84;21006;-68
2023/07/07 01:47:21;;;;;;;7.05;5.70;;;;;;;11.08;88.92;100144.78;1676372;84;21006;-67
2023/07/07 01:49:51;;;;;;;8.15;6.15;;;;;;;11.09;88.53;100151.69;1659748;83;21099;-68
2023/07/07 01:52:23;;;;;;;9.08;7.90;;;;;;;11.07;88.57;100149.63;1661227;85;22196;-68
2023/07/07 01:54:59;;;;;;;8.40;5.67;;;;;;;11.06;88.62;100149.20;1658752;86;21548;-68
2023/07/07 01:57:28;;;;;;;7.75;5.50;;;;;;;11.05;88.63;100150.13;1653272;85;21068;-69
2023/07/07 01:59:55;;;;;;;7.83;5.17;;;;;;;11.01;88.48;100145.94;1666845;85;21051;-68
2023/07/07 02:02:22;;;;;;;5.92;4.72;;;;;;;11.00;88.57;100139.02;1667718;84;20987;-68
2023/07/07 02:04:48;;;;;;;6.83;4.40;;;;;;;10.98;88.66;100147.79;1668053;84;21038;-67
2023/07/07 02:07:14;;;;;;;7.58;4.75;;;;;;;10.94;88.55;100146.20;1666249;85;21444;-70
2023/07/07 02:09:41;;;;;;;9.98;7.30;;;;;;;10.91;88.56;100145.02;1666858;84;21648;-68
2023/07/07 02:12:08;;;;;;;10.50;5.35;;;;;;;10.90;88.75;100145.95;1667363;84;21584;-70
2023/07/07 02:14:35;;;;;;;8.30;5.10;;;;;;;10.90;88.86;100144.64;1667299;84;21122;-70
2023/07/07 02:17:01;;;;;;;6.92;4.70;;;;;;;10.89;88.94;100150.77;1665657;84;21729;-69
2023/07/07 02:19:27;;;;;;;7.00;4.03;;;;;;;10.84;88.76;100150.13;1667094;85;21487;-70
2023/07/07 02:21:54;;;;;;;9.05;4.62;;;;;;;10.79;88.54;100152.08;1666474;84;21460;-69
2023/07/07 02:24:20;;;;;;;6.65;4.05;;;;;;;10.74;88.47;100151.41;1666819;84;21074;-70
2023/07/07 02:26:46;;;;;;;5.87;4.22;;;;;;;10.70;88.81;100152.47;1667203;84;22431;-69
2023/07/07 02:29:12;;;;;;;9.75;5.75;;;;;;;10.71;88.99;100145.02;1665689;84;21027;-69
2023/07/07 02:31:39;;;;;;;16.37;8.78;;;;;;;10.72;89.00;100153.23;1668171;84;21050;-68
2023/07/07 02:34:05;;;;;;;13.55;8.00;;;;;;;10.79;89.96;100152.08;1667021;84;21054;-67
2023/07/07 02:36:36;;;;;;;17.15;9.93;;;;;;;10.89;90.21;100145.54;1665851;84;21026;-68
2023/07/07 02:39:00;;;;;;;10.58;6.20;;;;;;;10.97;90.37;100140.84;1668094;84;21046;-67
2023/07/07 02:41:27;;;;;;;10.55;6.72;;;;;;;11.08;90.57;100140.85;1664394;84;21664;-68
2023/07/07 02:43:53;;;;;;;8.38;6.47;;;;;;;11.18;90.64;100144.32;1662820;85;20971;-68
2023/07/07 02:46:20;;;;;;;8.60;5.78;;;;;;;11.29;90.63;100141.25;1661859;85;21014;-69
2023/07/07 02:48:46;;;;;;;6.45;5.28;;;;;;;11.35;90.43;100146.20;1660698;85;21482;-69
2023/07/07 02:51:12;;;;;;;7.65;5.83;;;;;;;11.38;90.43;100146.06;1661457;85;21066;-68
2023/07/07 02:53:39;;;;;;;9.00;5.58;;;;;;;11.45;90.44;100153.63;1661795;85;21047;-68
2023/07/07 02:56:06;;;;;;;8.03;4.75;;;;;;;11.49;90.18;100152.60;1661152;86;21498;-67
2023/07/07 02:58:32;;;;;;;6.42;4.42;;;;;;;11.52;90.05;100160.31;1662686;86;20992;-67
2023/07/07 03:01:11;;;;;;;6.97;4.20;;;;;;;11.50;89.68;100159.52;1664216;84;21075;-68
2023/07/07 03:03:43;;;;;;;7.87;4.30;;;;;;;11.48;89.74;100163.95;1660514;85;21233;-69
2023/07/07 03:06:12;;;;;;;8.25;5.83;;;;;;;11.51;90.12;100161.20;1661524;86;21086;-67
2023/07/07 03:08:38;;;;;;;10.45;6.20;;;;;;;11.60;90.70;100166.05;1661750;84;21648;-68
2023/07/07 03:11:07;;;;;;;7.92;5.20;;;;;;;11.69;90.80;100163.02;1663217;86;22061;-68
2023/07/07 03:13:34;;;;;;;7.65;5.58;;;;;;;11.72;90.81;100166.80;1662943;85;21043;-67
2023/07/07 03:16:10;;;;;;;7.22;5.62;;;;;;;11.79;90.87;100170.85;1662788;85;21026;-68
2023/07/07 03:18:36;;;;;;;7.50;5.70;;;;;;;11.85;90.81;100164.06;1661613;86;21101;-67
2023/07/07 03:21:02;;;;;;;10.82;5.83;;;;;;;11.85;90.54;100161.44;1662719;84;21014;-67
2023/07/07 03:23:29;;;;;;;7.50;5.35;;;;;;;11.84;90.48;100161.47;1662691;84;21377;-68
2023/07/07 03:25:55;;;;;;;11.12;6.08;;;;;;;11.85;90.56;100168.42;1662750;85;21054;-68
2023/07/07 03:28:21;;;;;;;13.80;5.70;;;;;;;11.86;90.63;100174.91;1660987;86;21081;-69
2023/07/07 03:30:48;;;;;;;10.65;5.75;;;;;;;11.90;90.74;100176.07;1662319;85;21007;-68
2023/07/07 03:33:15;;;;;;;7.10;5.05;;;;;;;11.95;90.95;100178.02;1661378;85;21011;-68
2023/07/07 03:35:41;;;;;;;9.80;4.83;;;;;;;11.98;90.93;100176.58;1662816;85;21866;-68
2023/07/07 03:38:07;;;;;;;6.85;5.12;;;;;;;12.02;91.02;100180.77;1661703;86;20995;-68
2023/07/07 03:40:33;;;;;;;7.15;4.87;;;;;;;12.08;91.09;100188.33;1660827;85;21029;-68
2023/07/07 03:42:59;;;;;;;9.03;5.42;;;;;;;12.17;91.25;100187.89;1668019;85;21347;-69
2023/07/07 03:45:26;;;;;;;6.37;4.70;;;;;;;12.27;91.29;100190.95;1668733;85;21533;-70
2023/07/07 03:47:53;;;;;;;8.27;5.07;;;;;;;12.33;91.13;100192.44;1645118;85;21595;-67
2023/07/07 03:50:19;;;;;;;11.87;4.63;;;;;;;12.37;91.16;100196.59;1640926;86;21041;-69
2023/07/07 03:52:45;;;;;;;7.83;4.55;;;;;;;12.43;91.37;100194.52;1611605;87;21525;-68
2023/07/07 03:55:12;;;;;;;9.03;4.60;;;;;;;12.51;91.48;100194.16;1671878;84;21430;-69
2023/07/07 03:57:38;;;;;;;12.00;5.40;;;;;;;12.62;91.74;100197.58;1670929;85;21054;-68
2023/07/07 04:00:05;;;;;;;5.92;4.42;;;;;;;12.76;91.93;100197.30;1672476;84;21061;-69
2023/07/07 04:02:32;;;;;;;10.03;4.62;;;;;;;12.87;91.88;100203.79;1672761;84;21065;-68
2023/07/07 04:04:58;;;;;;;8.05;4.35;;;;;;;12.98;91.91;100201.48;1672702;85;21021;-69
2023/07/07 04:07:25;;;;;;;6.63;4.40;;;;;;;13.11;91.98;100206.98;1672115;85;21033;-70
2023/07/07 04:09:52;;;;;;;7.28;4.45;;;;;;;13.28;92.12;100214.03;1670896;84;21413;-69
2023/07/07 04:12:19;;;;;;;7.25;4.50;;;;;;;13.43;92.12;100213.23;1671125;85;21044;-68
2023/07/07 04:14:45;;;;;;;7.03;4.03;;;;;;;13.62;92.25;100218.39;1673001;85;20987;-69
2023/07/07 04:17:11;;;;;;;7.70;4.50;;;;;;;13.82;92.35;100216.03;1671206;84;21022;-69
2023/07/07 04:19:39;;;;;;;9.43;4.55;;;;;;;13.95;92.34;100205.27;1669843;85;21022;-68
2023/07/07 04:22:05;;;;;;;9.08;4.30;;;;;;;14.18;92.54;100203.19;1671734;85;21019;-69
2023/07/07 04:24:32;;;;;;;7.30;3.75;;;;;;;14.51;92.72;100219.72;1670221;84;21035;-68
2023/07/07 04:26:58;;;;;;;6.67;3.45;;;;;;;14.77;92.68;100214.80;1671094;84;21053;-70
2023/07/07 04:29:24;;;;;;;4.87;2.98;;;;;;;14.96;92.61;100211.98;1672000;84;21080;-68
2023/07/07 04:31:51;;;;;;;8.90;3.77;;;;;;;15.10;92.33;100215.12;1670869;85;21455;-68
2023/07/07 04:34:17;;;;;;;5.50;2.75;;;;;;;15.14;91.88;100220.57;1669455;85;21034;-68
2023/07/07 04:36:44;;;;;;;5.37;3.20;;;;;;;15.21;91.84;100217.97;1672634;84;21014;-69
2023/07/07 04:39:10;;;;;;;4.97;2.97;;;;;;;15.30;92.03;100217.42;1671464;84;21010;-69
2023/07/07 04:41:36;;;;;;;6.87;2.95;;;;;;;15.32;92.26;100198.45;1671500;84;21062;-68
2023/07/07 04:44:06;;;;;;;3.58;2.67;;;;;;;15.56;92.20;100220.28;1672997;84;21022;-69
2023/07/07 04:46:38;;;;;;;6.50;3.08;;;;;;;15.66;91.99;100218.80;1645173;85;21388;-67
2023/07/07 04:49:06;;;;;;;6.72;3.00;;;;;;;15.71;91.54;100223.80;1672688;84;22421;-69
2023/07/07 04:51:35;;;;;;;5.15;2.70;;;;;;;15.74;91.74;100217.91;1673031;84;21065;-69
2023/07/07 04:54:02;;;;;;;6.83;2.85;;;;;;;15.84;91.98;100224.28;1664459;85;21644;-69
2023/07/07 04:56:29;;;;;;;6.55;3.08;;;;;;;15.95;91.98;100228.05;1664513;84;21958;-70
2023/07/07 04:59:01;;;;;;;4.55;2.25;;;;;;;16.04;92.00;100230.11;1665747;84;21476;-70
2023/07/07 05:01:34;;;;;;;4.78;2.42;;;;;;;16.17;91.92;100235.01;1663627;84;21128;-69
2023/07/07 05:04:01;;;;;;;9.18;2.90;;;;;;;16.30;92.12;100234.63;1672473;85;21466;-70
2023/07/07 05:06:30;;;;;;;8.90;2.47;;;;;;;16.45;92.15;100239.86;1679928;84;21097;-71
2023/07/07 05:08:57;;;;;;;6.40;2.30;;;;;;;16.60;92.27;100244.14;1677933;84;21496;-70
2023/07/07 05:11:27;;;;;;;3.55;2.02;;;;;;;16.74;91.72;100240.14;1678916;84;21537;-69
2023/07/07 05:13:53;;;;;;;3.20;1.98;;;;;;;16.86;91.63;100244.28;1670628;84;21675;-70
2023/07/07 05:16:23;;;;;;;3.17;1.92;;;;;;;17.01;91.64;100247.25;1669752;84;21573;-71
2023/07/07 05:18:50;;;;;;;3.25;1.82;;;;;;;17.13;91.40;100245.11;1661539;84;21086;-73
2023/07/07 05:21:18;;;;;;;4.17;2.00;;;;;;;17.23;91.00;100245.36;1659616;84;21491;-71
2023/07/07 05:23:45;;;;;;;3.72;2.25;;;;;;;17.35;90.88;100248.97;1661957;84;21605;-68
2023/07/07 05:26:12;;;;;;;3.08;1.87;;;;;;;17.47;90.74;100248.13;1664608;84;21014;-72
2023/07/07 05:28:38;;;;;;;4.10;2.33;;;;;;;17.58;90.53;100246.92;1664929;84;21022;-72
2023/07/07 05:31:07;;;;;;;3.17;1.77;;;;;;;17.72;90.19;100241.19;1668268;84;21030;-68
2023/07/07 05:33:34;;;;;;;3.92;1.70;;;;;;;17.86;90.75;100243.75;1663599;84;21046;-71
2023/07/07 05:36:03;;;;;;;4.80;1.87;;;;;;;18.01;90.35;100240.06;1658728;84;21023;-70
2023/07/07 05:38:31;;;;;;;2.50;1.50;;;;;;;18.20;90.33;100246.67;1661518;84;21091;-68
2023/07/07 05:40:58;;;;;;;5.20;2.22;;;;;;;18.34;89.40;100249.17;1656259;84;21429;-68
2023/07/07 05:43:26;;;;;;;4.35;1.50;;;;;;;18.39;89.04;100243.58;1670540;83;21070;-69
2023/07/07 05:45:58;;;;;;;3.33;1.50;;;;;;;18.52;89.49;100252.33;1658727;84;21026;-68
2023/07/07 05:48:24;;;;;;;2.30;1.50;;;;;;;18.64;88.93;100258.52;1660343;85;21058;-68
2023/07/07 05:50:52;;;;;;;2.87;1.50;;;;;;;18.79;88.57;100260.07;1666928;85;21093;-70
2023/07/07 05:53:19;;;;;;;3.50;1.77;;;;;;;18.92;88.71;100256.91;1667949;84;20974;-70
2023/07/07 05:55:50;;;;;;;4.78;1.92;;;;;;;19.07;88.65;100255.40;1675106;85;20958;-71
2023/07/07 05:58:15;;;;;;;1.92;1.30;;;;;;;19.23;88.46;100253.30;1676173;84;20990;-71
2023/07/07 06:00:41;;;;;;;4.60;1.55;;;;;;;19.37;87.75;100255.75;1677848;85;20990;-72
2023/07/07 06:03:10;;;;;;;8.57;1.37;;;;;;;19.41;87.02;100251.93;1678783;84;20959;-71
2023/07/07 06:05:38;;;;;;;3.80;1.55;;;;;;;19.54;86.82;100261.58;1648166;85;21676;-71
2023/07/07 06:08:05;;;;;;;8.05;1.80;;;;;;;19.64;86.66;100259.93;1677635;85;21039;-70
2023/07/07 06:10:32;;;;;;;3.17;0.93;;;;;;;19.74;85.92;100262.24;1676306;84;21043;-69
2023/07/07 06:13:01;;;;;;;2.08;1.30;;;;;;;19.79;84.50;100261.41;1677475;85;21490;-69
2023/07/07 06:15:27;;;;;;;2.08;1.20;;;;;;;19.89;85.76;100266.38;1678048;84;20979;-68
2023/07/07 06:17:53;;;;;;;1.90;1.35;;;;;;;20.08;85.48;100266.25;1669956;84;21027;-68
2023/07/07 06:20:20;;;;;;;1.70;0.90;;;;;;;20.15;84.35;100264.82;1668033;85;21090;-69
2023/07/07 06:22:48;;;;;;;9.40;1.35;;;;;;;20.22;83.75;100271.34;1677516;84;20978;-68
2023/07/07 06:25:15;;;;;;;8.75;1.55;;;;;;;20.37;84.10;100273.73;1667696;85;20984;-67
2023/07/07 06:27:41;;;;;;;3.27;1.40;;;;;;;20.50;83.09;100277.08;1669176;84;21578;-69
2023/07/07 06:30:08;;;;;;;1.40;1.00;;;;;;;20.57;83.03;100273.02;1672458;84;21058;-68
2023/07/07 06:32:34;;;;;;;3.05;1.15;;;;;;;20.75;83.37;100270.22;1666903;84;21034;-68
2023/07/07 06:35:00;;;;;;;2.30;1.20;;;;;;;20.93;82.83;100271.00;1668715;84;21070;-69
2023/07/07 06:37:26;;;;;;;2.05;1.05;;;;;;;21.07;82.54;100276.02;1669229;84;21096;-69
2023/07/07 06:39:52;;;;;;;11.12;1.37;;;;;;;21.37;82.15;100277.11;1668259;84;20988;-69
2023/07/07 06:42:19;;;;;;;23.10;3.20;;;;;;;21.55;81.15;100272.92;1668629;84;21121;-69
2023/07/07 06:44:46;;;;;;;2.00;1.27;;;;;;;21.79;81.35;100275.78;1688712;83;21016;-69
2023/07/07 06:47:15;;;;;;;6.60;1.17;;;;;;;22.23;81.32;100279.12;1687678;83;21580;-68
2023/07/07 06:49:41;;;;;;;4.05;1.00;;;;;;;22.53;80.35;100283.08;1688157;83;21036;-68
2023/07/07 06:52:07;;;;;;;2.00;1.00;;;;;;;22.70;79.72;100280.73;1682090;84;20991;-68
2023/07/07 06:54:34;;;;;;;1.97;1.20;;;;;;;23.06;80.14;100278.45;1682556;83;21017;-69
2023/07/07 06:57:03;;;;;;;3.62;1.00;;;;;;;23.36;79.96;100278.30;1683880;84;21025;-68
2023/07/07 06:59:30;;;;;;;2.72;1.40;;;;;;;23.72;79.78;100270.55;1683822;83;21629;-68
2023/07/07 07:01:56;;;;;;;1.65;1.00;;;;;;;24.21;79.74;100268.58;1684420;84;21580;-69
2023/07/07 07:04:22;;;;;;;3.15;0.88;;;;;;;24.66;78.82;100267.80;1684722;84;21014;-68
2023/07/07 07:06:48;;;;;;;3.03;1.10;;;;;;;25.13;79.09;100274.28;1684535;83;21570;-68
2023/07/07 07:09:15;;;;;;;1.62;0.93;;;;;;;26.05;79.25;100273.52;1684680;84;21273;-68
2023/07/07 07:11:41;;;;;;;2.40;0.88;;;;;;;26.96;78.62;100279.53;1685326;84;21105;-69
2023/07/07 07:14:08;;;;;;;2.27;1.12;;;;;;;27.92;78.55;100278.05;1683127;83;21049;-68
2023/07/07 07:16:34;;;;;;;3.42;1.00;;;;;;;29.03;78.33;100284.63;1682669;84;20951;-69
2023/07/07 07:19:03;;;;;;;2.90;1.00;;;;;;;29.66;76.09;100285.31;1682568;84;21053;-69
2023/07/07 07:21:29;;;;;;;3.35;1.00;;;;;;;30.44;75.11;100294.73;1684678;83;21019;-69
2023/07/07 07:23:55;;;;;;;3.27;1.20;;;;;;;31.22;74.87;100292.30;1683902;83;20960;-69
2023/07/07 07:26:22;;;;;;;2.45;0.90;;;;;;;31.75;73.52;100292.77;1684687;84;20983;-69
2023/07/07 07:28:48;;;;;;;12.55;1.10;;;;;;;32.36;72.42;100291.29;1681221;84;21093;-69
2023/07/07 07:31:14;;;;;;;3.35;1.17;;;;;;;33.25;71.59;100290.34;1682204;83;21098;-69
2023/07/07 07:33:40;;;;;;;;;;;;;;;34.06;72.50;100296.36;1684529;83;21493;-68
2023/07/07 07:36:06;;;;;;;2.10;0.80;;;;;;;34.68;64.78;100294.06;1684000;83;20282;-69
2023/07/07 07:38:34;;;;;;;2.40;0.93;;;;;;;35.01;67.64;100294.90;1682228;83;21759;-68
2023/07/07 07:41:00;;;;;;;;;;;;;;;35.71;68.48;100295.67;1685056;84;21127;-69
2023/07/07 07:43:26;;;;;;;1.65;1.05;;;;;;;36.32;64.82;100298.58;1648168;85;20178;-69
2023/07/07 07:45:55;;;;;;;3.80;0.80;;;;;;;37.13;67.07;100291.86;1648686;85;21487;-66
2023/07/07 07:48:21;;;;;;;2.77;1.10;;;;;;;38.04;67.44;100293.26;1647446;85;21108;-66
2023/07/07 07:50:48;;;;;;;1.87;1.00;;;;;;;38.64;65.54;100291.20;1647741;85;21431;-65
2023/07/07 07:53:14;;;;;;;37.35;4.10;;;;;;;39.24;64.60;100297.51;1648547;85;21122;-65
2023/07/07 07:55:41;;;;;;;2.42;0.90;;;;;;;40.10;64.11;100293.06;1651004;85;21010;-66
2023/07/07 07:58:12;;;;;;;1.70;0.93;;;;;;;39.99;60.11;100304.95;1652172;85;21041;-66
2023/07/07 08:00:36;;;;;;;5.25;1.17;;;;;;;38.59;57.71;100300.66;1622732;87;21030;-64
2023/07/07 08:03:02;;;;;;;3.05;1.07;;;;;;;37.59;59.95;100299.30;1624282;87;21426;-64
2023/07/07 08:05:30;;;;;;;2.92;1.07;;;;;;;37.93;60.18;100298.70;1676669;83;21154;-64
2023/07/07 08:07:58;;;;;;;8.18;1.80;;;;;;;38.69;58.81;100301.68;1673564;85;21070;-64
2023/07/07 08:10:24;;;;;;;2.60;1.00;;;;;;;39.85;58.14;100299.56;1678401;83;21635;-64
2023/07/07 08:12:50;;;;;;;5.92;1.05;;;;;;;40.40;56.12;100298.67;1676778;83;21479;-65
2023/07/07 08:15:16;;;;;;;2.20;1.00;;;;;;;40.74;56.62;100295.78;1671868;84;21527;-66
2023/07/07 08:17:42;;;;;;;2.20;1.10;;;;;;;41.12;53.77;100294.26;1677162;84;21061;-63
2023/07/07 08:20:15;;;;;;;1.75;1.00;;;;;;;41.17;53.35;100295.38;1684563;82;20963;-68
2023/07/07 08:22:41;;;;;;;2.92;0.88;;;;;;;40.24;52.73;100298.47;1674779;83;21007;-66
2023/07/07 08:25:09;;;;;;;2.60;1.07;;;;;;;39.05;52.03;100307.00;1679050;83;21109;-67
2023/07/07 08:27:37;;;;;;;5.42;0.93;;;;;;;37.81;52.55;100301.41;1684663;84;20959;-66
2023/07/07 08:30:04;;;;;;;2.55;1.00;;;;;;;38.30;52.88;100299.24;1682793;85;21034;-67
2023/07/07 08:32:31;;;;;;;3.15;1.10;;;;;;;38.93;52.42;100301.08;1683353;85;21145;-66
2023/07/07 08:34:57;;;;;;;5.90;1.50;;;;;;;39.26;48.23;100299.43;1682394;83;21023;-66
2023/07/07 08:37:25;;;;;;;1.85;1.17;;;;;;;38.12;47.69;100297.52;1680768;84;21516;-66
2023/07/07 08:39:53;;;;;;;4.33;1.12;;;;;;;38.20;48.83;100299.02;1683666;83;20982;-66
2023/07/07 08:42:40;;;;;;;5.85;1.10;;;;;;;38.34;47.24;100296.31;1682188;83;20968;-66
2023/07/07 08:45:15;;;;;;;1.40;0.90;;;;;;;38.70;49.95;100295.68;1682984;83;21134;-66
2023/07/07 08:48:12;;;;;;;1.75;0.90;;;;;;;39.56;47.88;100296.39;1626193;86;21687;-66
2023/07/07 08:51:00;;;;;;;2.45;1.10;;;;;;;40.19;46.57;100294.33;1661463;85;21010;-66
2023/07/07 08:53:26;;;;;;;1.90;0.90;;;;;;;39.34;45.96;100294.95;1658318;83;21053;-66
2023/07/07 08:55:56;;;;;;;1.42;0.85;;;;;;;38.95;46.90;100303.00;1683098;84;21093;-66
2023/07/07 08:58:57;;;;;;;4.92;0.85;;;;;;;40.20;48.01;100301.44;1655194;85;21028;-66
2023/07/07 09:01:33;;;;;;;4.75;0.90;;;;;;;41.47;42.62;100291.50;1683921;84;21624;-66
2023/07/07 09:04:21;;;;;;;4.62;1.00;;;;;;;43.15;45.12;100301.56;1686130;83;21961;-66
2023/07/07 09:07:03;;;;;;;3.98;1.02;;;;;;;43.30;42.64;100297.45;1683973;83;21105;-66
2023/07/07 09:09:52;;;;;;;3.40;1.07;;;;;;;41.33;40.06;100295.78;1682724;84;21501;-66
2023/07/07 09:12:27;;;;;;;2.02;0.93;;;;;;;39.54;42.01;100301.81;1682906;84;20986;-66
2023/07/07 09:14:57;;;;;;;2.37;0.90;;;;;;;40.41;42.26;100296.20;1684044;83;20990;-66
2023/07/07 09:17:27;;;;;;;2.58;0.98;;;;;;;40.96;41.05;100299.28;1683978;83;21092;-66
2023/07/07 09:19:56;;;;;;;7.33;1.15;;;;;;;41.57;42.06;100297.09;1681878;84;21030;-66
2023/07/07 09:22:38;;;;;;;2.02;1.20;;;;;;;42.75;41.27;100296.29;1683684;83;21009;-65
2023/07/07 09:25:09;;;;;;;3.10;1.10;;;;;;;43.55;40.29;100308.14;1682671;84;21037;-66
2023/07/07 09:27:55;;;;;;;4.22;1.20;;;;;;;44.24;38.63;100306.03;1669107;84;21619;-66
2023/07/07 09:30:35;;;;;;;3.47;0.88;;;;;;;44.22;38.06;100308.23;1686654;83;21470;-66
2023/07/07 09:33:03;;;;;;;1.98;0.85;;;;;;;45.07;38.39;100295.39;1685144;83;20935;-65
2023/07/07 09:35:36;;;;;;;4.58;1.10;;;;;;;46.30;37.15;100297.73;1648134;86;21475;-66
2023/07/07 09:38:21;;;;;;;2.98;1.00;;;;;;;46.42;36.09;100300.87;1657301;85;21037;-66
2023/07/07 09:40:57;;;;;;;2.77;1.00;;;;;;;46.53;37.03;100303.48;1628317;87;20995;-66
2023/07/07 09:43:46;;;;;;;1.42;0.98;;;;;;;47.04;36.95;100305.50;1650640;85;21007;-66
2023/07/07 09:46:26;;;;;;;1.82;0.90;;;;;;;47.65;35.53;100301.66;1692214;83;21042;-66
2023/07/07 09:49:08;;;;;;;3.30;0.98;;;;;;;47.56;34.77;100306.25;1684935;83;21054;-66
2023/07/07 09:51:44;;;;;;;1.32;1.00;;;;;;;46.92;33.85;100300.96;1682342;83;22387;-66
2023/07/07 09:54:13;;;;;;;2.90;1.10;;;;;;;46.80;32.26;100302.81;1678971;83;21121;-66
2023/07/07 09:56:43;;;;;;;1.42;0.80;;;;;;;46.52;32.40;100301.83;1663613;84;21100;-66
2023/07/07 09:59:19;;;;;;;1.85;0.82;;;;;;;45.26;31.23;100298.26;1680155;84;21044;-66
2023/07/07 10:01:49;;;;;;;3.40;1.10;;;;;;;45.31;32.99;100304.55;1684458;83;20994;-66
2023/07/07 10:04:19;;;;;;;3.52;0.90;;;;;;;46.80;32.46;100300.87;1682260;84;21042;-65
2023/07/07 10:07:06;;;;;;;6.70;1.20;;;;;;;47.60;32.42;100316.16;1683404;84;21007;-65
2023/07/07 10:09:31;;;;;;;;;;;;;;;49.01;32.29;100303.70;1684511;82;21458;-65
2023/07/07 10:12:01;;;;;;;3.30;1.00;;;;;;;49.54;29.63;100297.91;1664626;84;20185;-65
2023/07/07 10:14:30;;;;;;;2.02;1.05;;;;;;;49.53;31.36;100302.41;1681824;84;20943;-65
2023/07/07 10:17:12;;;;;;;0.88;0.82;;;;;;;49.00;30.14;100298.50;1683275;84;21088;-65
2023/07/07 10:19:44;;;;;;;1.22;0.88;;;;;;;47.62;30.08;100304.20;1678877;83;21748;-66
2023/07/07 10:22:14;;;;;;;4.75;1.07;;;;;;;47.68;30.64;100298.28;1662017;85;21069;-64
2023/07/07 10:24:43;;;;;;;4.55;1.10;;;;;;;48.78;30.06;100300.67;1658770;85;21576;-64
2023/07/07 10:27:12;;;;;;;3.17;1.00;;;;;;;48.86;28.20;100298.53;1682296;84;21065;-65
2023/07/07 10:29:42;;;;;;;2.22;0.85;;;;;;;49.46;29.27;100295.34;1683404;84;21011;-65
2023/07/07 10:32:15;;;;;;;4.90;1.07;;;;;;;50.33;29.19;100287.33;1683439;83;20998;-64
2023/07/07 10:34:49;;;;;;;2.27;1.10;;;;;;;50.48;27.79;100289.40;1683361;83;22051;-64
2023/07/07 10:37:21;;;;;;;3.90;1.30;;;;;;;50.42;27.73;100285.13;1681520;84;21030;-66
2023/07/07 10:39:51;;;;;;;3.02;0.93;;;;;;;49.15;26.99;100290.34;1681224;84;21485;-66
2023/07/07 10:42:20;;;;;;;5.85;1.30;;;;;;;49.48;27.67;100286.14;1681382;84;21097;-66
2023/07/07 10:44:51;;;;;;;23.80;2.83;;;;;;;50.47;27.18;100285.78;1685289;83;21076;-66
2023/07/07 10:47:18;;;;;;;4.97;1.20;;;;;;;51.32;27.02;100288.58;1670394;83;20973;-66
2023/07/07 10:49:45;;;;;;;2.62;0.90;;;;;;;52.26;26.27;100288.45;1673125;85;21073;-66
2023/07/07 10:52:37;;;;;;;1.25;0.90;;;;;;;52.13;26.43;100289.78;1666723;85;21120;-65
2023/07/07 10:55:16;;;;;;;1.30;1.05;;;;;;;52.64;26.07;100280.55;1685815;83;21025;-65
2023/07/07 10:58:03;;;;;;;2.08;1.20;;;;;;;53.00;25.44;100284.87;1676540;83;21144;-65
2023/07/07 11:01:00;;;;;;;3.52;1.40;;;;;;;52.02;25.03;100287.16;1679605;84;21017;-65
2023/07/07 11:03:42;;;;;;;2.25;1.20;;;;;;;50.77;24.66;100282.61;1680695;83;21604;-65
2023/07/07 11:06:31;;;;;;;2.50;1.20;;;;;;;49.84;24.73;100280.99;1686270;83;21460;-66
2023/07/07 11:09:22;;;;;;;1.98;0.98;;;;;;;48.50;24.47;100285.50;1689765;83;21580;-65
2023/07/07 11:12:14;;;;;;;1.62;0.80;;;;;;;46.80;24.83;100292.58;1684240;84;20997;-66
2023/07/07 11:14:58;;;;;;;20.65;3.05;;;;;;;46.33;25.62;100294.37;1634539;86;21108;-66
2023/07/07 11:17:36;;;;;;;1.50;0.85;;;;;;;45.92;25.33;100294.05;1633478;86;21070;-66
2023/07/07 11:20:31;;;;;;;7.80;1.37;;;;;;;45.34;25.56;100286.61;1632660;86;21109;-66
2023/07/07 11:23:17;;;;;;;5.80;1.07;;;;;;;45.51;25.89;100293.05;1581495;89;21081;-65
2023/07/07 11:25:47;;;;;;;11.53;1.47;;;;;;;45.57;25.60;100284.20;1578418;89;20983;-65
2023/07/07 11:28:29;;;;;;;3.42;0.90;;;;;;;45.92;24.99;100286.59;1583736;89;21073;-65
2023/07/07 11:31:05;;;;;;;4.35;0.90;;;;;;;45.84;25.78;100286.39;1587562;88;21081;-65
2023/07/07 11:33:38;;;;;;;14.55;2.15;;;;;;;44.84;24.24;100289.50;1516997;93;21155;-65
2023/07/07 11:36:22;;;;;;;4.35;1.00;;;;;;;44.27;24.59;100287.31;1514911;93;21615;-65
2023/07/07 11:39:12;;;;;;;2.33;1.07;;;;;;;43.63;24.51;100281.46;1521096;93;21145;-66